Darling, MS (38623)

4:31 AM CDT on July 29, 2016 (GMT -0500)
Lakewood Village | | Change Station

Elev 315 ft 34.32 °N, 89.92 °W | Updated 7 minutes ago

Overcast
Overcast
74.8 °F
Feels Like 73 °F
N
3.2
Wind Variable Wind from West

Today
High -- | Low -- °F
--% Chance of Precip.
Yesterday
High -- | Low -- °F
Precip. -- in
Pressure 29.97 in
Visibility 10.0 miles
Clouds Scattered Clouds 400 ft
Mostly Cloudy 900 ft
Overcast 1500 ft
Heat Index 73 °F
Dew Point 74 °F
Humidity 96%
Rainfall 0.00 in
Snow Depth Not available.
6:09 AM 8:04 PM
Waning Crescent, 23% visible
METAR KUTA 290915Z AUTO 20006KT 10SM SCT004 BKN009 OVC015 23/22 A2997 RMK AO2 TSNO
Pressure 29.97 in
Visibility 10.0 miles
Clouds Scattered Clouds 400 ft
Mostly Cloudy 900 ft
Overcast 1500 ft
Heat Index 73 °F
Dew Point 74 °F
Humidity 96%
Rainfall 0.00 in
Snow Depth Not available.
6:09 AM 8:04 PM
Waning Crescent, 23% visible
METAR KUTA 290915Z AUTO 20006KT 10SM SCT004 BKN009 OVC015 23/22 A2997 RMK AO2 TSNO

10-Day Weather Forecast

Almanac

Astronomy

Jul. 29, 2016 Rise Set
Actual Time
Civil Twilight
Nautical Twilight
Astronomical Twilight
Moon
Length of Visible Light
Length of Day
Tomorrow will be .
, % of the Moon is Illuminated

Today's Extremes

State Highs State Lows

Community

WunderPhotos

Upload Photos

1,928,300 photos uploaded!

WunderBlog® & News

Nearby

Air Quality

  Air Quality AQ Index Pollutant
Not available.

Snow Depth

Station Depth Elevation

Earthquake Activity

City Distance Mag. Time & Date
Minimum magnitude displayed is 2.5.

Coastal Water Temperatures

Place Temperature

Stations

Nearby Weather Stations

Station Location Temp. Windchill Dew Point Humidity Wind Precip. Elev Updated Type
                   

Watches & Warnings

There are currently no watches in effect.